首页
METAR-TAF:

METAR-TAF

机场 :

Columbus County Municipal Airport

Whiteville, 北卡罗来纳州, 美国

纬度: 34-16-22N, 经度: 078-42-54W, 海拔: 30米

当前天气观测

该预报发布于10分钟前的09:40 UTC
风速4节,风向
温度 25°C
湿度 94%
气压 1019 hPa
能見度: 6.4公里
阴天层高于300英尺
轻雾

METAR: KCPC 260940Z AUTO 19004KT 4SM BR OVC003 25/24 A3009 RMK AO2 T02450240

时间: 05:50 (09:50 UTC)


TAF: 丢失

超过4000个机场的气象观测和天气预报(METAR&TAF报告)。

可查询的气象台以黄色和红色小点在地图上表示。

将鼠标移到小点上方,可查看气象台名称。

然后点击查看天气观测和预报。

如需切换地图:点击带黑十字的绿色按钮放大地图;点击带横线的绿色按钮缩小地图;或者点击绿色箭头查看邻近地区的地图。


METAR-TAF: